Time;durP1;ratioP1;P1;durP2;ratioP2;P2;SDS_P1;SDS_P2;PMS_P1;PMS_P2;Temp;Humidity;BMP_temperature;BMP_pressure;BME280_temperature;BME280_humidity;BME280_pressure;Samples;Min_cycle;Max_cycle;Signal;HPM_P1;HPM_P2
2022/06/24 00:00:37;;;;;;;4.28;0.60;;;14.30;99.90;;;;;;5032513;28;19909;-69
2022/06/24 00:03:04;;;;;;;3.22;0.73;;;14.40;99.90;;;;;;5029687;28;20021;-69
2022/06/24 00:05:34;;;;;;;1.30;0.60;;;14.50;99.90;;;;;;5025233;28;20265;-68
2022/06/24 00:08:01;;;;;;;5.93;0.88;;;14.60;99.90;;;;;;5023202;28;20024;-68
2022/06/24 00:10:33;;;;;;;3.33;0.70;;;14.60;99.90;;;;;;5036836;28;20057;-68
2022/06/24 00:13:01;;;;;;;1.63;0.47;;;14.70;99.90;;;;;;5035084;28;20102;-68
2022/06/24 00:15:34;;;;;;;1.58;0.47;;;14.70;99.90;;;;;;5034741;28;20069;-67
2022/06/24 00:18:20;;;;;;;2.20;0.95;;;14.70;99.90;;;;;;5027492;28;20376;-68
2022/06/24 00:20:49;;;;;;;1.33;0.50;;;14.80;99.90;;;;;;5019295;28;20017;-68
2022/06/24 00:23:26;;;;;;;3.10;0.43;;;14.90;99.90;;;;;;5028341;28;20052;-68
2022/06/24 00:25:53;;;;;;;5.45;0.70;;;14.90;99.90;;;;;;5035143;28;20121;-68
2022/06/24 00:28:26;;;;;;;2.28;0.40;;;14.90;99.90;;;;;;5032481;28;20502;-68
2022/06/24 00:30:56;;;;;;;2.65;1.13;;;15.00;99.90;;;;;;5030726;28;20077;-67
2022/06/24 00:33:32;;;;;;;1.33;0.57;;;15.00;99.90;;;;;;5027611;28;20029;-67
2022/06/24 00:35:59;;;;;;;16.77;1.55;;;15.20;99.90;;;;;;5030605;28;20133;-67
2022/06/24 00:38:37;;;;;;;2.08;0.30;;;15.30;99.90;;;;;;5030377;28;20105;-67
2022/06/24 00:41:10;;;;;;;1.05;0.40;;;15.30;99.90;;;;;;5023407;28;20022;-67
2022/06/24 00:43:53;;;;;;;0.65;0.20;;;15.60;99.90;;;;;;5028856;28;20092;-67
2022/06/24 00:46:37;;;;;;;1.52;0.20;;;15.50;99.90;;;;;;5018999;28;20018;-67
2022/06/24 00:49:08;;;;;;;0.93;0.20;;;15.60;99.90;;;;;;5037793;28;20032;-67
2022/06/24 00:51:37;;;;;;;1.52;0.30;;;15.60;99.90;;;;;;5033567;28;20021;-67
2022/06/24 00:54:13;;;;;;;3.75;0.63;;;15.70;99.90;;;;;;5025284;28;20498;-67
2022/06/24 00:56:41;;;;;;;2.67;0.82;;;15.80;99.90;;;;;;5018467;28;20113;-68
2022/06/24 00:59:09;;;;;;;1.13;0.50;;;15.90;99.90;;;;;;5016965;28;20044;-69
2022/06/24 01:01:41;;;;;;;2.88;0.30;;;15.90;99.90;;;;;;5039675;28;21031;-68
2022/06/24 01:04:11;;;;;;;4.28;0.17;;;15.80;99.90;;;;;;5017342;28;20029;-68
2022/06/24 01:06:40;;;;;;;1.27;0.10;;;15.80;99.90;;;;;;5029828;28;20041;-68
2022/06/24 01:09:08;;;;;;;1.80;0.22;;;15.80;99.90;;;;;;5034122;28;20108;-68
2022/06/24 01:11:37;;;;;;;1.23;0.28;;;15.90;99.90;;;;;;5021719;28;20037;-68
2022/06/24 01:14:04;;;;;;;1.92;0.30;;;15.90;99.90;;;;;;5022715;28;20034;-68
2022/06/24 01:16:32;;;;;;;0.98;0.28;;;15.90;99.90;;;;;;5022610;28;20029;-68
2022/06/24 01:19:02;;;;;;;1.08;0.40;;;15.90;99.90;;;;;;5020348;28;20030;-68
2022/06/24 01:21:47;;;;;;;0.93;0.30;;;16.00;99.90;;;;;;5013880;28;20060;-68
2022/06/24 01:24:16;;;;;;;0.65;0.10;;;16.00;99.90;;;;;;5029401;28;20044;-68
2022/06/24 01:26:47;;;;;;;0.93;0.40;;;16.00;99.90;;;;;;5038222;28;20033;-67
2022/06/24 01:29:15;;;;;;;1.80;0.32;;;16.00;99.90;;;;;;5042767;28;20078;-67
2022/06/24 01:31:45;;;;;;;1.10;0.30;;;16.10;99.90;;;;;;5020391;28;20022;-68
2022/06/24 01:34:12;;;;;;;0.43;0.20;;;16.20;99.90;;;;;;5017305;28;20597;-68
2022/06/24 01:36:40;;;;;;;0.75;0.20;;;16.30;99.90;;;;;;5033286;28;20619;-68
2022/06/24 01:39:08;;;;;;;0.85;0.10;;;16.40;99.90;;;;;;5042077;28;20104;-68
2022/06/24 01:41:36;;;;;;;2.47;0.32;;;16.50;99.90;;;;;;5020102;28;20029;-68
2022/06/24 01:44:03;;;;;;;1.02;0.35;;;16.50;99.90;;;;;;5025388;28;20085;-67
2022/06/24 01:46:31;;;;;;;0.93;0.20;;;16.50;99.90;;;;;;5016863;28;20038;-68
2022/06/24 01:48:58;;;;;;;0.65;0.20;;;16.40;99.90;;;;;;5022389;28;20029;-68
2022/06/24 01:51:26;;;;;;;0.80;0.20;;;16.50;99.90;;;;;;5024602;28;20478;-68
2022/06/24 01:53:53;;;;;;;1.05;0.30;;;16.50;99.90;;;;;;5027770;28;20087;-68
2022/06/24 01:56:20;;;;;;;1.40;0.40;;;16.50;99.90;;;;;;5016038;28;20588;-67
2022/06/24 01:58:48;;;;;;;0.77;0.20;;;16.50;99.90;;;;;;5013817;28;20033;-68
2022/06/24 02:01:15;;;;;;;1.75;0.30;;;16.60;99.90;;;;;;5019680;28;20362;-68
2022/06/24 02:03:43;;;;;;;1.98;0.52;;;16.70;99.90;;;;;;5017552;28;20060;-68
2022/06/24 02:06:12;;;;;;;1.67;0.50;;;16.60;99.90;;;;;;5022228;28;20033;-68
2022/06/24 02:08:40;;;;;;;1.38;0.38;;;16.70;99.90;;;;;;5025482;28;20026;-68
2022/06/24 02:13:57;;;;;;;1.80;0.40;;;16.90;99.90;;;;;;5018780;28;20045;-69
2022/06/24 02:16:26;;;;;;;4.05;0.47;;;16.90;99.90;;;;;;5026682;28;20029;-69
2022/06/24 02:18:56;;;;;;;2.97;0.30;;;16.90;99.90;;;;;;5013040;28;20033;-69
2022/06/24 02:21:24;;;;;;;4.35;0.75;;;17.30;99.90;;;;;;5019754;28;20018;-69
2022/06/24 02:23:53;;;;;;;1.33;0.40;;;17.50;99.90;;;;;;5023595;28;20030;-69
2022/06/24 02:26:23;;;;;;;1.00;0.40;;;17.50;99.90;;;;;;5031017;28;20033;-70
2022/06/24 02:28:50;;;;;;;3.13;0.50;;;17.40;99.90;;;;;;5020011;28;20414;-69
2022/06/24 02:31:18;;;;;;;2.40;0.80;;;17.60;99.90;;;;;;5017637;28;20032;-69
2022/06/24 02:33:48;;;;;;;2.75;0.45;;;17.80;99.90;;;;;;5028076;28;20103;-68
2022/06/24 02:36:16;;;;;;;2.25;0.93;;;17.60;99.90;;;;;;5013720;28;20490;-68
2022/06/24 02:38:43;;;;;;;2.92;0.60;;;17.60;99.90;;;;;;5031189;28;20052;-69
2022/06/24 02:41:11;;;;;;;3.28;0.60;;;17.40;99.90;;;;;;5030380;28;20037;-69
2022/06/24 02:43:39;;;;;;;2.13;0.70;;;17.70;99.90;;;;;;5022820;28;20768;-68
2022/06/24 02:46:12;;;;;;;2.15;0.50;;;18.20;99.90;;;;;;5022311;28;20176;-69
2022/06/24 02:48:43;;;;;;;1.70;0.47;;;17.90;99.90;;;;;;5040373;28;20138;-67
2022/06/24 02:51:13;;;;;;;1.58;0.47;;;18.10;99.90;;;;;;5030806;28;20025;-67
2022/06/24 02:53:40;;;;;;;2.00;0.60;;;18.00;99.90;;;;;;5012212;28;20112;-67
2022/06/24 02:56:10;;;;;;;3.80;0.52;;;17.90;99.90;;;;;;5014873;28;20052;-69
2022/06/24 02:58:38;;;;;;;3.45;0.55;;;18.30;99.90;;;;;;5033688;28;20076;-68
2022/06/24 03:01:06;;;;;;;2.53;0.40;;;18.20;99.90;;;;;;5025873;28;20057;-68
2022/06/24 03:03:34;;;;;;;4.63;0.40;;;17.60;99.90;;;;;;5014251;28;20025;-68
2022/06/24 03:06:03;;;;;;;3.72;0.57;;;17.50;99.90;;;;;;5012422;28;20033;-67
2022/06/24 03:08:30;;;;;;;2.17;0.60;;;17.70;99.90;;;;;;5020824;28;20053;-68
2022/06/24 03:10:58;;;;;;;4.38;0.60;;;17.80;99.90;;;;;;5023168;28;20026;-67
2022/06/24 03:13:25;;;;;;;0.95;0.55;;;17.90;99.90;;;;;;5025199;28;20451;-68
2022/06/24 03:15:53;;;;;;;1.85;0.45;;;17.90;99.90;;;;;;5026232;28;20069;-67
2022/06/24 03:18:20;;;;;;;4.53;0.55;;;18.10;99.90;;;;;;5029408;28;20429;-67
2022/06/24 03:20:48;;;;;;;3.85;0.65;;;18.10;99.90;;;;;;5020580;28;20524;-67
2022/06/24 03:23:16;;;;;;;4.28;0.80;;;18.40;99.90;;;;;;5025196;28;20028;-67
2022/06/24 03:25:44;;;;;;;2.25;0.50;;;18.20;99.90;;;;;;5029047;28;20025;-67
2022/06/24 03:28:11;;;;;;;1.23;0.35;;;18.20;99.90;;;;;;5015797;28;20029;-67
2022/06/24 03:30:39;;;;;;;1.73;0.28;;;18.30;99.90;;;;;;5028812;28;20036;-67
2022/06/24 03:33:07;;;;;;;3.13;0.40;;;18.10;99.90;;;;;;5020947;28;20133;-67
2022/06/24 03:35:34;;;;;;;2.63;0.35;;;18.20;99.90;;;;;;5014902;28;20117;-67
2022/06/24 03:38:02;;;;;;;4.38;0.40;;;18.10;99.90;;;;;;5015671;28;20352;-67
2022/06/24 03:40:30;;;;;;;1.20;0.40;;;18.10;99.90;;;;;;5018656;28;20096;-68
2022/06/24 03:42:57;;;;;;;4.43;0.30;;;18.00;99.90;;;;;;5029898;28;20140;-68
2022/06/24 03:45:24;;;;;;;2.60;0.30;;;18.00;99.90;;;;;;5029959;28;20029;-68
2022/06/24 03:47:52;;;;;;;4.13;0.55;;;17.90;99.90;;;;;;5015399;28;20030;-68
2022/06/24 03:50:19;;;;;;;2.15;0.40;;;17.80;99.90;;;;;;5016063;28;20124;-67
2022/06/24 03:52:47;;;;;;;0.85;0.30;;;18.00;99.90;;;;;;5015210;28;20080;-67
2022/06/24 03:55:14;;;;;;;4.75;0.57;;;18.10;99.90;;;;;;5015084;28;20053;-67
2022/06/24 03:57:41;;;;;;;1.02;0.30;;;18.10;99.90;;;;;;5014809;28;20103;-67
2022/06/24 04:00:09;;;;;;;2.47;0.50;;;18.00;99.90;;;;;;5018070;28;20383;-68
2022/06/24 04:02:37;;;;;;;2.38;0.32;;;18.00;99.90;;;;;;5034921;28;20420;-68
2022/06/24 04:05:04;;;;;;;1.52;0.43;;;17.90;99.90;;;;;;5031467;28;20076;-68
2022/06/24 04:07:32;;;;;;;2.58;0.60;;;17.80;99.90;;;;;;5014868;28;20041;-68
2022/06/24 04:09:59;;;;;;;1.92;0.60;;;17.70;99.90;;;;;;5014411;28;20104;-68
2022/06/24 04:12:26;;;;;;;2.85;0.65;;;17.70;99.90;;;;;;5014799;28;20025;-68
2022/06/24 04:17:39;;;;;;;2.15;0.70;;;17.70;99.90;;;;;;5018553;28;20076;-67
2022/06/24 04:20:06;;;;;;;1.55;0.70;;;17.60;99.90;;;;;;5021910;28;20030;-68
2022/06/24 04:22:34;;;;;;;1.23;0.30;;;17.50;99.90;;;;;;5023894;28;20022;-67
2022/06/24 04:25:01;;;;;;;2.42;0.30;;;17.50;99.90;;;;;;5014543;28;20033;-67
2022/06/24 04:27:29;;;;;;;0.93;0.32;;;17.50;99.90;;;;;;5014752;28;20025;-67
2022/06/24 04:30:05;;;;;;;1.80;0.20;;;17.40;99.90;;;;;;5014016;28;20041;-67
2022/06/24 04:32:32;;;;;;;1.70;0.30;;;17.40;99.90;;;;;;5013636;28;20083;-68
2022/06/24 04:35:00;;;;;;;2.70;0.43;;;17.40;99.90;;;;;;5014106;28;20593;-68
2022/06/24 04:37:28;;;;;;;1.55;0.50;;;17.40;99.90;;;;;;5029736;28;20071;-68
2022/06/24 04:39:58;;;;;;;1.70;0.50;;;17.40;99.90;;;;;;5018375;28;20479;-68
2022/06/24 04:42:25;;;;;;;5.68;0.40;;;17.30;99.90;;;;;;5016038;28;20053;-67
2022/06/24 04:44:53;;;;;;;5.28;0.60;;;17.40;99.90;;;;;;5027233;28;20113;-68
2022/06/24 04:47:20;;;;;;;2.90;0.50;;;17.40;99.90;;;;;;5014222;28;20029;-67
2022/06/24 04:49:48;;;;;;;2.92;0.88;;;17.30;99.90;;;;;;5025353;28;20036;-67
2022/06/24 04:52:18;;;;;;;1.25;0.30;;;17.20;99.90;;;;;;5014025;28;20041;-68
2022/06/24 04:54:45;;;;;;;1.48;0.50;;;17.20;99.90;;;;;;5013685;28;20052;-68
2022/06/24 04:57:13;;;;;;;2.13;0.30;;;17.20;99.90;;;;;;5014184;28;20398;-68
2022/06/24 04:59:40;;;;;;;6.50;0.45;;;17.20;99.90;;;;;;5016963;28;20037;-68
2022/06/24 05:02:08;;;;;;;4.22;0.35;;;17.20;99.90;;;;;;5014531;28;20022;-67
2022/06/24 05:04:36;;;;;;;4.53;0.50;;;17.20;99.90;;;;;;5013768;28;20032;-68
2022/06/24 05:07:05;;;;;;;8.68;0.43;;;17.10;99.90;;;;;;5014136;28;20033;-68
2022/06/24 05:09:32;;;;;;;0.90;0.60;;;17.10;99.90;;;;;;5028738;28;20036;-68
2022/06/24 05:11:59;;;;;;;1.42;0.40;;;17.00;99.90;;;;;;5029737;28;20362;-69
2022/06/24 05:14:28;;;;;;;2.92;0.57;;;17.00;99.90;;;;;;5014618;28;20042;-69
2022/06/24 05:16:55;;;;;;;2.40;0.40;;;17.00;99.90;;;;;;5014465;28;20038;-68
2022/06/24 05:19:23;;;;;;;1.65;0.50;;;16.90;99.90;;;;;;5013804;28;20045;-68
2022/06/24 05:21:50;;;;;;;2.45;0.98;;;16.80;99.90;;;;;;5028202;28;20075;-68
2022/06/24 05:24:18;;;;;;;2.20;0.82;;;16.80;99.90;;;;;;5033418;28;20502;-68
2022/06/24 05:26:46;;;;;;;1.73;0.40;;;16.70;99.90;;;;;;5019230;28;20051;-68
2022/06/24 05:29:14;;;;;;;1.73;0.70;;;16.60;99.90;;;;;;5013632;28;20033;-69
2022/06/24 05:31:42;;;;;;;0.77;0.30;;;16.50;99.90;;;;;;5013712;28;20471;-68
2022/06/24 05:34:09;;;;;;;0.93;0.30;;;16.40;99.90;;;;;;5013087;28;20030;-69
2022/06/24 05:36:37;;;;;;;1.65;0.65;;;16.30;99.90;;;;;;5013185;28;20039;-67
2022/06/24 05:39:05;;;;;;;3.17;0.50;;;16.20;99.90;;;;;;5013017;28;20038;-68
2022/06/24 05:41:34;;;;;;;1.05;0.40;;;16.20;99.90;;;;;;5012316;28;20018;-68
2022/06/24 05:44:01;;;;;;;2.20;0.52;;;16.30;99.90;;;;;;5026966;28;20033;-69
2022/06/24 05:46:29;;;;;;;2.75;1.13;;;16.30;99.90;;;;;;5015576;28;20057;-68
2022/06/24 05:48:57;;;;;;;3.03;0.65;;;16.10;99.90;;;;;;5013257;28;20057;-68
2022/06/24 05:51:25;;;;;;;2.33;0.73;;;16.20;99.90;;;;;;5013200;28;20026;-68
2022/06/24 05:56:38;;;;;;;3.88;0.70;;;16.10;99.90;;;;;;5019721;28;20037;-68
2022/06/24 05:59:05;;;;;;;4.60;0.90;;;16.10;99.90;;;;;;5012713;28;20030;-68
2022/06/24 06:01:33;;;;;;;2.78;0.80;;;16.10;99.90;;;;;;5012982;28;20065;-68
2022/06/24 06:04:00;;;;;;;3.65;0.70;;;16.00;99.90;;;;;;5013804;28;20042;-68
2022/06/24 06:06:28;;;;;;;3.08;0.45;;;15.90;99.90;;;;;;5019934;28;20030;-68
2022/06/24 06:08:57;;;;;;;1.85;1.00;;;15.90;99.90;;;;;;5015009;28;20802;-69
2022/06/24 06:11:26;;;;;;;7.50;0.77;;;15.90;99.90;;;;;;5017770;28;20032;-69
2022/06/24 06:13:55;;;;;;;3.28;0.93;;;16.10;99.90;;;;;;5012851;28;20383;-68
2022/06/24 06:16:23;;;;;;;2.92;0.40;;;16.10;99.90;;;;;;5017304;28;20030;-68
2022/06/24 06:18:51;;;;;;;3.97;0.70;;;16.00;99.90;;;;;;5012581;28;20034;-68
2022/06/24 06:21:19;;;;;;;12.45;1.60;;;16.00;99.90;;;;;;5012338;28;20437;-68
2022/06/24 06:23:47;;;;;;;12.15;2.20;;;16.20;99.90;;;;;;5011175;28;20465;-68
2022/06/24 06:26:14;;;;;;;17.13;1.50;;;16.30;99.90;;;;;;5012697;28;20026;-68
2022/06/24 06:28:42;;;;;;;6.72;1.00;;;16.40;99.90;;;;;;5012903;28;20104;-68
2022/06/24 06:31:10;;;;;;;3.08;0.43;;;16.50;99.90;;;;;;5012537;28;20022;-68
2022/06/24 06:33:38;;;;;;;4.25;0.50;;;16.60;99.90;;;;;;5012822;28;20483;-68
2022/06/24 06:36:08;;;;;;;2.95;0.40;;;16.50;99.90;;;;;;5016829;28;20125;-68
2022/06/24 06:38:36;;;;;;;1.95;0.50;;;16.50;99.90;;;;;;5012468;28;20029;-68
2022/06/24 06:41:04;;;;;;;3.67;0.40;;;16.50;99.90;;;;;;5015076;28;20026;-68
2022/06/24 06:43:32;;;;;;;1.00;0.40;;;16.40;99.90;;;;;;5012925;28;20037;-68
2022/06/24 06:45:59;;;;;;;2.45;0.60;;;16.50;99.90;;;;;;5012991;28;20069;-68
2022/06/24 06:48:27;;;;;;;2.05;0.52;;;16.50;99.90;;;;;;5012805;28;20113;-68
2022/06/24 06:50:59;;;;;;;3.85;0.40;;;16.50;99.90;;;;;;5019034;28;20040;-68
2022/06/24 06:53:28;;;;;;;1.77;0.43;;;16.70;99.90;;;;;;5021738;28;20505;-68
2022/06/24 06:55:56;;;;;;;0.93;0.28;;;16.70;99.90;;;;;;5016239;28;20060;-68
2022/06/24 06:58:23;;;;;;;2.97;0.68;;;16.70;99.90;;;;;;5019938;28;20053;-68
2022/06/24 07:00:52;;;;;;;1.70;0.28;;;16.60;99.90;;;;;;5017273;28;20033;-67
2022/06/24 07:03:23;;;;;;;1.17;0.40;;;16.60;99.90;;;;;;5019014;28;20014;-68
2022/06/24 07:05:51;;;;;;;3.05;0.40;;;16.50;99.90;;;;;;5028826;28;20087;-67
2022/06/24 07:08:19;;;;;;;2.90;0.50;;;16.50;99.90;;;;;;5023653;28;20026;-68
2022/06/24 07:10:46;;;;;;;1.25;0.38;;;16.50;99.90;;;;;;5030651;28;20148;-67
2022/06/24 07:13:14;;;;;;;4.45;0.80;;;16.50;99.90;;;;;;5035098;28;20026;-67
2022/06/24 07:15:41;;;;;;;1.98;0.50;;;16.50;99.90;;;;;;5028093;28;20175;-67
2022/06/24 07:18:09;;;;;;;2.55;0.40;;;16.50;99.90;;;;;;5032716;28;20486;-69
2022/06/24 07:20:37;;;;;;;2.08;0.50;;;16.60;99.90;;;;;;5032421;28;20032;-68
2022/06/24 07:23:04;;;;;;;2.03;0.80;;;16.60;99.90;;;;;;5030162;28;20029;-68
2022/06/24 07:25:32;;;;;;;1.48;0.82;;;16.60;99.90;;;;;;5029452;28;20022;-67
2022/06/24 07:28:00;;;;;;;5.28;1.17;;;16.60;99.90;;;;;;5025702;28;20018;-68
2022/06/24 07:30:28;;;;;;;6.53;1.20;;;16.60;99.90;;;;;;5036084;28;20026;-68
2022/06/24 07:32:55;;;;;;;2.78;0.95;;;16.50;99.90;;;;;;5031622;28;20029;-68
2022/06/24 07:35:23;;;;;;;4.20;1.33;;;16.40;99.90;;;;;;5027775;28;20054;-68
2022/06/24 07:37:50;;;;;;;3.40;2.00;;;16.40;99.90;;;;;;5036036;28;20033;-68
2022/06/24 07:40:18;;;;;;;3.85;1.08;;;16.40;99.90;;;;;;5030014;28;20124;-68
2022/06/24 07:42:45;;;;;;;1.92;0.90;;;16.40;99.90;;;;;;5018197;28;20020;-67
2022/06/24 07:45:13;;;;;;;2.50;1.23;;;16.40;99.90;;;;;;5028809;28;20030;-68
2022/06/24 07:47:41;;;;;;;3.33;0.65;;;16.40;99.90;;;;;;5019972;28;20029;-69
2022/06/24 07:50:08;;;;;;;6.35;0.80;;;16.30;99.90;;;;;;5032161;28;20036;-69
2022/06/24 07:52:35;;;;;;;1.95;0.73;;;16.30;99.90;;;;;;5024879;28;20034;-69
2022/06/24 07:57:48;;;;;;;3.28;1.13;;;16.50;99.90;;;;;;5020762;28;20052;-68
2022/06/24 08:00:18;;;;;;;1.63;0.77;;;16.60;99.90;;;;;;5028212;28;20042;-68
2022/06/24 08:02:46;;;;;;;4.03;0.70;;;16.60;99.90;;;;;;5026873;28;20099;-69
2022/06/24 08:05:13;;;;;;;2.80;0.63;;;16.50;99.90;;;;;;5031866;28;20022;-70
2022/06/24 08:07:43;;;;;;;4.25;0.95;;;16.40;99.90;;;;;;5028312;28;20451;-69
2022/06/24 08:10:10;;;;;;;1.98;0.57;;;16.40;99.90;;;;;;5042501;28;20030;-69
2022/06/24 08:12:38;;;;;;;4.35;1.00;;;16.30;99.90;;;;;;5020080;28;20433;-69
2022/06/24 08:15:05;;;;;;;2.70;0.60;;;16.30;99.90;;;;;;5033537;28;20036;-69
2022/06/24 08:17:33;;;;;;;1.67;0.50;;;16.30;99.90;;;;;;5018350;28;20068;-69
2022/06/24 08:20:00;;;;;;;2.45;0.82;;;16.40;99.90;;;;;;5031013;28;20030;-68
2022/06/24 08:22:27;;;;;;;6.32;1.30;;;16.30;99.90;;;;;;5024745;28;20026;-68
2022/06/24 08:24:54;;;;;;;1.92;0.70;;;16.30;99.90;;;;;;5036681;28;20034;-67
2022/06/24 08:27:25;;;;;;;3.40;0.90;;;16.30;99.90;;;;;;5026049;28;20017;-68
2022/06/24 08:29:52;;;;;;;7.15;1.40;;;16.20;99.90;;;;;;5032257;28;20029;-68
2022/06/24 08:32:20;;;;;;;1.95;1.02;;;16.10;99.90;;;;;;5017157;28;20076;-67
2022/06/24 08:34:47;;;;;;;3.22;0.90;;;16.10;99.90;;;;;;5019264;28;20028;-67
2022/06/24 08:37:14;;;;;;;3.10;0.70;;;16.00;99.90;;;;;;5016143;28;20497;-67
2022/06/24 08:39:42;;;;;;;3.05;1.20;;;16.00;99.90;;;;;;5021367;28;20040;-67
2022/06/24 08:42:13;;;;;;;4.53;1.65;;;15.90;99.90;;;;;;5031126;28;20021;-67
2022/06/24 08:44:41;;;;;;;4.35;1.13;;;15.80;99.90;;;;;;5026002;28;20018;-67
2022/06/24 08:47:16;;;;;;;5.30;1.23;;;15.70;99.90;;;;;;5029909;28;20103;-67
2022/06/24 08:49:44;;;;;;;4.72;2.05;;;15.70;99.90;;;;;;5034957;28;20497;-67
2022/06/24 08:52:13;;;;;;;5.60;2.05;;;15.70;99.90;;;;;;5032964;28;20022;-67
2022/06/24 08:54:43;;;;;;;3.65;1.25;;;15.70;99.90;;;;;;5014663;28;20053;-67
2022/06/24 08:57:12;;;;;;;2.40;1.10;;;15.70;99.90;;;;;;5031831;28;20478;-67
2022/06/24 08:59:42;;;;;;;4.03;1.23;;;15.70;99.90;;;;;;5030233;28;20022;-68
2022/06/24 09:02:14;;;;;;;7.40;2.00;;;15.60;99.90;;;;;;5028294;28;20053;-67
2022/06/24 09:04:45;;;;;;;3.67;1.60;;;15.60;99.90;;;;;;5027344;28;20424;-67
2022/06/24 09:07:39;;;;;;;4.22;1.80;;;15.40;99.90;;;;;;5045768;28;20072;-68
2022/06/24 09:10:12;;;;;;;5.57;1.90;;;15.30;99.90;;;;;;5047221;28;20119;-67
2022/06/24 09:12:42;;;;;;;3.58;1.30;;;15.10;99.90;;;;;;5021363;28;20097;-67
2022/06/24 09:15:12;;;;;;;5.97;2.55;;;14.90;99.90;;;;;;5019513;28;20417;-68
2022/06/24 09:17:40;;;;;;;4.63;2.78;;;14.80;99.90;;;;;;5037908;28;20065;-67
2022/06/24 09:20:13;;;;;;;11.63;3.00;;;14.80;99.90;;;;;;5021510;28;20037;-68
2022/06/24 09:22:41;;;;;;;5.75;2.20;;;14.90;99.90;;;;;;5021985;28;20026;-67
2022/06/24 09:25:09;;;;;;;6.35;3.35;;;14.90;99.90;;;;;;5036529;28;20033;-68
2022/06/24 09:27:42;;;;;;;5.45;2.58;;;15.00;99.90;;;;;;5029292;28;20033;-68
2022/06/24 09:30:11;;;;;;;4.78;2.50;;;15.10;99.90;;;;;;5025178;28;21172;-68
2022/06/24 09:32:53;;;;;;;3.30;1.75;;;15.10;99.90;;;;;;5032513;28;20375;-68
2022/06/24 09:35:22;;;;;;;6.25;4.38;;;15.00;99.90;;;;;;5026195;28;20026;-68
2022/06/24 09:37:51;;;;;;;6.15;2.63;;;14.80;99.90;;;;;;5023721;28;20541;-68
2022/06/24 09:40:20;;;;;;;5.70;2.30;;;14.70;99.90;;;;;;5015915;28;20025;-68
2022/06/24 09:42:59;;;;;;;5.88;3.30;;;14.60;99.90;;;;;;5032411;28;20056;-68
2022/06/24 09:45:45;;;;;;;5.32;3.40;;;14.50;99.90;;;;;;5026579;28;20550;-68
2022/06/24 09:48:29;;;;;;;4.00;2.58;;;14.40;99.90;;;;;;5021790;28;20041;-68
2022/06/24 09:51:02;;;;;;;3.78;2.80;;;14.20;99.90;;;;;;5021636;28;20108;-69
2022/06/24 09:53:40;;;;;;;9.15;3.30;;;14.00;99.90;;;;;;5046064;28;20033;-68
2022/06/24 09:56:10;;;;;;;10.13;4.30;;;13.90;99.90;;;;;;5041681;28;20072;-69
2022/06/24 09:58:40;;;;;;;8.15;4.55;;;13.80;99.90;;;;;;5018678;28;20028;-68
2022/06/24 10:01:07;;;;;;;7.05;4.63;;;13.70;99.90;;;;;;5019251;28;20025;-68
2022/06/24 10:03:37;;;;;;;7.95;4.70;;;13.70;99.90;;;;;;5026362;28;20065;-68
2022/06/24 10:06:11;;;;;;;9.35;5.22;;;13.60;99.90;;;;;;5025593;28;20021;-68
2022/06/24 10:08:38;;;;;;;;;;;13.50;99.90;;;;;;5033967;28;20025;-68
2022/06/24 10:11:11;;;;;;;17.08;7.75;;;13.50;99.90;;;;;;5027122;28;19963;-68
2022/06/24 10:13:39;;;;;;;14.65;6.80;;;13.50;99.90;;;;;;5042910;28;20438;-69
2022/06/24 10:16:07;;;;;;;12.55;7.15;;;13.50;99.90;;;;;;5033739;28;20482;-68
2022/06/24 10:18:39;;;;;;;12.05;6.55;;;13.50;99.90;;;;;;5023215;28;20210;-68
2022/06/24 10:21:12;;;;;;;12.55;6.25;;;13.50;99.90;;;;;;5022392;28;20042;-68
2022/06/24 10:23:45;;;;;;;8.25;3.30;;;13.50;99.90;;;;;;5013089;28;20017;-68
2022/06/24 10:26:31;;;;;;;6.32;3.42;;;13.50;99.90;;;;;;5045124;28;20049;-68
2022/06/24 10:29:04;;;;;;;6.90;2.95;;;13.50;99.90;;;;;;5047213;28;20022;-68
2022/06/24 10:34:25;;;;;;;4.88;2.45;;;13.70;99.90;;;;;;5053452;28;20112;-68
2022/06/24 10:36:57;;;;;;;3.95;2.28;;;13.80;99.90;;;;;;5024256;28;20113;-68
2022/06/24 10:39:29;;;;;;;7.07;2.13;;;13.90;99.90;;;;;;5031196;28;20033;-68
2022/06/24 10:42:14;;;;;;;5.80;2.45;;;14.00;99.90;;;;;;5032516;28;20038;-68
2022/06/24 10:45:00;;;;;;;3.88;1.88;;;14.00;99.90;;;;;;5045215;28;20031;-68
2022/06/24 10:47:34;;;;;;;5.13;2.50;;;14.00;99.90;;;;;;5018959;28;20034;-68
2022/06/24 10:50:02;;;;;;;;;;;14.00;99.90;;;;;;5029872;28;20032;-68
2022/06/24 10:52:51;;;;;;;4.78;1.63;;;14.00;99.90;;;;;;5046472;28;19909;-68
2022/06/24 10:55:20;;;;;;;2.83;1.27;;;14.10;99.90;;;;;;5031291;28;20159;-68
2022/06/24 10:57:54;;;;;;;4.15;1.52;;;14.10;99.90;;;;;;5036371;28;20068;-68
2022/06/24 11:00:24;;;;;;;2.72;1.23;;;14.10;99.90;;;;;;5046741;28;20021;-68
2022/06/24 11:03:03;;;;;;;5.38;1.50;;;14.10;99.90;;;;;;5050517;28;20030;-69
2022/06/24 11:05:34;;;;;;;4.63;1.25;;;14.20;99.90;;;;;;5041877;28;20025;-68
2022/06/24 11:08:02;;;;;;;3.15;1.50;;;14.20;99.90;;;;;;5038481;28;20021;-68
2022/06/24 11:10:31;;;;;;;3.63;1.38;;;14.30;99.90;;;;;;5044978;28;20071;-68
2022/06/24 11:13:02;;;;;;;2.85;1.13;;;14.20;99.90;;;;;;5036877;28;20029;-68
2022/06/24 11:15:48;;;;;;;3.38;1.15;;;14.10;99.90;;;;;;5047125;28;20083;-68
2022/06/24 11:18:22;;;;;;;4.43;1.10;;;14.10;99.90;;;;;;5014261;28;20387;-68
2022/06/24 11:20:54;;;;;;;;;;;14.00;99.90;;;;;;5019533;28;20053;-68
2022/06/24 11:23:24;;;;;;;2.72;1.08;;;14.10;99.90;;;;;;5025762;28;19924;-68
2022/06/24 11:25:51;;;;;;;2.30;1.00;;;14.00;99.90;;;;;;5030292;28;20097;-68
2022/06/24 11:28:21;;;;;;;3.05;0.95;;;14.10;99.90;;;;;;5023988;28;20025;-68
2022/06/24 11:30:50;;;;;;;5.00;1.10;;;14.00;99.90;;;;;;5039989;28;20040;-68
2022/06/24 11:33:19;;;;;;;1.63;0.60;;;14.10;99.90;;;;;;5037170;28;20033;-68
2022/06/24 11:35:50;;;;;;;2.63;0.80;;;14.10;99.90;;;;;;5038419;28;20038;-68
2022/06/24 11:38:22;;;;;;;3.20;0.93;;;14.10;99.90;;;;;;5025966;28;20029;-69
2022/06/24 11:40:50;;;;;;;1.23;0.68;;;14.20;99.90;;;;;;5032278;28;20362;-68
2022/06/24 11:43:18;;;;;;;4.50;0.90;;;14.20;99.90;;;;;;5024767;28;20131;-68
2022/06/24 11:45:47;;;;;;;3.10;0.80;;;14.20;99.90;;;;;;5028975;28;20379;-68
2022/06/24 11:48:23;;;;;;;2.17;0.70;;;14.20;99.90;;;;;;5015318;28;20075;-68
2022/06/24 11:50:52;;;;;;;3.70;0.95;;;14.20;99.90;;;;;;5022185;28;20065;-68
2022/06/24 11:53:24;;;;;;;1.33;0.70;;;14.20;99.90;;;;;;5042628;28;20026;-68
2022/06/24 11:55:53;;;;;;;3.30;0.77;;;14.10;99.90;;;;;;5033611;28;20391;-68
2022/06/24 11:58:22;;;;;;;3.30;0.68;;;14.10;99.90;;;;;;5024422;28;20479;-68
2022/06/24 12:00:53;;;;;;;1.70;0.68;;;14.10;99.90;;;;;;5028550;28;20115;-68
2022/06/24 12:03:24;;;;;;;2.53;0.98;;;14.10;99.90;;;;;;5037285;28;20031;-68
2022/06/24 12:05:51;;;;;;;3.63;1.40;;;14.00;99.90;;;;;;5031129;28;20518;-67
2022/06/24 12:08:19;;;;;;;7.55;1.58;;;13.90;99.90;;;;;;5052486;28;20045;-66
2022/06/24 12:10:54;;;;;;;4.05;1.88;;;13.80;99.90;;;;;;5030848;28;20029;-69
2022/06/24 12:13:27;;;;;;;3.80;1.80;;;13.60;99.90;;;;;;5032772;28;20029;-69
2022/06/24 12:15:55;;;;;;;1.98;0.90;;;13.50;99.90;;;;;;5034455;28;20049;-68
2022/06/24 12:18:24;;;;;;;1.58;0.65;;;13.50;99.90;;;;;;5025218;28;20026;-67
2022/06/24 12:21:06;;;;;;;1.63;0.77;;;13.40;99.90;;;;;;5029075;28;20362;-67
2022/06/24 12:23:35;;;;;;;4.90;1.33;;;13.30;99.90;;;;;;5024202;28;20021;-68
2022/06/24 12:26:17;;;;;;;4.35;1.20;;;13.30;99.90;;;;;;5027285;28;20038;-68
2022/06/24 12:28:57;;;;;;;3.33;1.30;;;13.20;99.90;;;;;;5027778;28;20031;-68
2022/06/24 12:31:24;;;;;;;11.55;1.75;;;13.20;99.90;;;;;;5027501;28;20025;-68
2022/06/24 12:33:54;;;;;;;6.22;1.27;;;13.10;99.90;;;;;;5033338;28;20033;-68
2022/06/24 12:36:44;;;;;;;7.93;1.88;;;13.10;99.90;;;;;;5034677;28;20401;-67
2022/06/24 12:39:12;;;;;;;5.25;0.90;;;13.10;99.90;;;;;;5031115;28;20065;-68
2022/06/24 12:41:44;;;;;;;0.90;0.40;;;13.00;99.90;;;;;;5038431;28;20040;-68
2022/06/24 12:44:13;;;;;;;0.95;0.40;;;13.40;99.90;;;;;;5029173;28;20535;-68
2022/06/24 12:52:35;;;;;;;2.97;0.60;;;13.60;99.90;;;;;;5044744;28;20039;-68
2022/06/24 12:55:05;;;;;;;1.08;0.30;;;14.00;99.90;;;;;;5037001;28;20107;-67
2022/06/24 12:57:33;;;;;;;2.03;0.50;;;14.00;99.90;;;;;;5028147;28;20025;-67
2022/06/24 13:00:03;;;;;;;3.75;0.25;;;14.10;99.90;;;;;;5024995;28;20021;-68
2022/06/24 13:02:31;;;;;;;0.82;0.30;;;14.10;99.90;;;;;;5018028;28;20482;-67
2022/06/24 13:04:59;;;;;;;3.60;0.40;;;14.00;99.90;;;;;;5026179;28;20099;-67
2022/06/24 13:07:26;;;;;;;2.05;0.30;;;13.90;99.90;;;;;;5030100;28;20052;-68
2022/06/24 13:09:53;;;;;;;1.55;0.47;;;13.80;99.90;;;;;;5043019;28;20017;-67
2022/06/24 13:12:21;;;;;;;1.10;0.20;;;13.90;99.90;;;;;;5029241;28;20029;-67
2022/06/24 13:14:48;;;;;;;1.67;0.40;;;13.80;99.90;;;;;;5028662;28;20116;-67
2022/06/24 13:17:15;;;;;;;1.20;0.38;;;13.80;99.90;;;;;;5026064;28;20083;-69
2022/06/24 13:19:42;;;;;;;2.47;0.50;;;13.70;99.90;;;;;;5036534;28;20029;-67